sensor_id;sensor_type;location;lat;lon;timestamp;temperature;humidity
21616;DHT22;10970;48.714;9.584;2023-03-03T00:02:22;2.00;99.90
21616;DHT22;10970;48.714;9.584;2023-03-03T00:04:47;2.00;99.90
21616;DHT22;10970;48.714;9.584;2023-03-03T00:07:13;2.00;99.90
21616;DHT22;10970;48.714;9.584;2023-03-03T00:09:46;2.00;99.90
21616;DHT22;10970;48.714;9.584;2023-03-03T00:12:26;2.00;99.90
21616;DHT22;10970;48.714;9.584;2023-03-03T00:14:52;2.00;99.90
21616;DHT22;10970;48.714;9.584;2023-03-03T00:17:22;2.00;99.90
21616;DHT22;10970;48.714;9.584;2023-03-03T00:19:49;2.00;99.90
21616;DHT22;10970;48.714;9.584;2023-03-03T00:24:47;1.90;99.90
21616;DHT22;10970;48.714;9.584;2023-03-03T00:27:26;1.80;99.90
21616;DHT22;10970;48.714;9.584;2023-03-03T00:29:55;1.70;99.90
21616;DHT22;10970;48.714;9.584;2023-03-03T00:32:41;1.60;99.90
21616;DHT22;10970;48.714;9.584;2023-03-03T00:35:26;1.60;99.90
21616;DHT22;10970;48.714;9.584;2023-03-03T00:38:30;1.50;99.90
21616;DHT22;10970;48.714;9.584;2023-03-03T00:40:59;1.50;99.90
21616;DHT22;10970;48.714;9.584;2023-03-03T00:43:33;1.40;99.90
21616;DHT22;10970;48.714;9.584;2023-03-03T00:45:59;1.40;99.90
21616;DHT22;10970;48.714;9.584;2023-03-03T00:48:29;1.30;99.90
21616;DHT22;10970;48.714;9.584;2023-03-03T00:50:57;1.30;99.90
21616;DHT22;10970;48.714;9.584;2023-03-03T00:53:25;1.20;99.90
21616;DHT22;10970;48.714;9.584;2023-03-03T00:55:52;1.20;99.90
21616;DHT22;10970;48.714;9.584;2023-03-03T00:58:19;1.10;99.90
21616;DHT22;10970;48.714;9.584;2023-03-03T01:00:50;1.10;99.90
21616;DHT22;10970;48.714;9.584;2023-03-03T01:03:21;1.00;99.90
21616;DHT22;10970;48.714;9.584;2023-03-03T01:05:49;1.00;99.90
21616;DHT22;10970;48.714;9.584;2023-03-03T01:08:15;0.90;99.90
21616;DHT22;10970;48.714;9.584;2023-03-03T01:10:53;0.90;99.90
21616;DHT22;10970;48.714;9.584;2023-03-03T01:13:23;1.00;99.90
21616;DHT22;10970;48.714;9.584;2023-03-03T01:15:50;1.00;99.90
21616;DHT22;10970;48.714;9.584;2023-03-03T01:18:16;0.90;99.90
21616;DHT22;10970;48.714;9.584;2023-03-03T01:20:42;0.90;99.90
21616;DHT22;10970;48.714;9.584;2023-03-03T01:23:08;0.80;99.90
21616;DHT22;10970;48.714;9.584;2023-03-03T01:25:34;0.70;99.90
21616;DHT22;10970;48.714;9.584;2023-03-03T01:27:59;0.70;99.90
21616;DHT22;10970;48.714;9.584;2023-03-03T01:30:26;0.60;99.90
21616;DHT22;10970;48.714;9.584;2023-03-03T01:32:51;0.60;99.90
21616;DHT22;10970;48.714;9.584;2023-03-03T01:35:17;0.60;99.90
21616;DHT22;10970;48.714;9.584;2023-03-03T01:37:43;0.50;99.90
21616;DHT22;10970;48.714;9.584;2023-03-03T01:40:18;0.50;99.90
21616;DHT22;10970;48.714;9.584;2023-03-03T01:42:44;0.50;99.90
21616;DHT22;10970;48.714;9.584;2023-03-03T01:45:21;0.40;99.90
21616;DHT22;10970;48.714;9.584;2023-03-03T01:48:05;0.50;99.90
21616;DHT22;10970;48.714;9.584;2023-03-03T01:50:38;0.40;99.90
21616;DHT22;10970;48.714;9.584;2023-03-03T01:53:12;0.40;99.90
21616;DHT22;10970;48.714;9.584;2023-03-03T01:55:40;0.40;99.90
21616;DHT22;10970;48.714;9.584;2023-03-03T02:00:42;0.50;99.90
21616;DHT22;10970;48.714;9.584;2023-03-03T02:03:10;0.40;99.90
21616;DHT22;10970;48.714;9.584;2023-03-03T02:05:36;0.60;99.90
21616;DHT22;10970;48.714;9.584;2023-03-03T02:08:04;0.60;99.90
21616;DHT22;10970;48.714;9.584;2023-03-03T02:10:30;0.60;99.90
21616;DHT22;10970;48.714;9.584;2023-03-03T02:12:57;0.70;99.90
21616;DHT22;10970;48.714;9.584;2023-03-03T02:15:30;0.70;99.90
21616;DHT22;10970;48.714;9.584;2023-03-03T02:18:10;0.60;99.90
21616;DHT22;10970;48.714;9.584;2023-03-03T02:26:21;0.70;99.90
21616;DHT22;10970;48.714;9.584;2023-03-03T02:28:47;0.70;99.90
21616;DHT22;10970;48.714;9.584;2023-03-03T02:31:16;0.70;99.90
21616;DHT22;10970;48.714;9.584;2023-03-03T02:33:44;0.70;99.90
21616;DHT22;10970;48.714;9.584;2023-03-03T02:36:19;0.80;99.90
21616;DHT22;10970;48.714;9.584;2023-03-03T02:44:07;0.80;99.90
21616;DHT22;10970;48.714;9.584;2023-03-03T02:46:39;0.90;99.90
21616;DHT22;10970;48.714;9.584;2023-03-03T02:49:06;0.80;99.90
21616;DHT22;10970;48.714;9.584;2023-03-03T02:51:32;0.90;99.90
21616;DHT22;10970;48.714;9.584;2023-03-03T02:53:58;0.90;99.90
21616;DHT22;10970;48.714;9.584;2023-03-03T02:56:24;0.90;99.90
21616;DHT22;10970;48.714;9.584;2023-03-03T02:58:50;0.90;99.90
21616;DHT22;10970;48.714;9.584;2023-03-03T03:01:16;0.90;99.90
21616;DHT22;10970;48.714;9.584;2023-03-03T03:03:42;1.00;99.90
21616;DHT22;10970;48.714;9.584;2023-03-03T03:06:07;1.00;99.90
21616;DHT22;10970;48.714;9.584;2023-03-03T03:08:33;1.00;99.90
21616;DHT22;10970;48.714;9.584;2023-03-03T03:10:59;1.00;99.90
21616;DHT22;10970;48.714;9.584;2023-03-03T03:13:25;1.00;99.90
21616;DHT22;10970;48.714;9.584;2023-03-03T03:15:50;1.00;99.90
21616;DHT22;10970;48.714;9.584;2023-03-03T03:18:16;1.10;99.90
21616;DHT22;10970;48.714;9.584;2023-03-03T03:20:42;1.00;99.90
21616;DHT22;10970;48.714;9.584;2023-03-03T03:23:08;1.00;99.90
21616;DHT22;10970;48.714;9.584;2023-03-03T03:25:34;1.00;99.90
21616;DHT22;10970;48.714;9.584;2023-03-03T03:28:02;1.10;99.90
21616;DHT22;10970;48.714;9.584;2023-03-03T03:30:28;1.10;99.90
21616;DHT22;10970;48.714;9.584;2023-03-03T03:32:53;1.00;99.90
21616;DHT22;10970;48.714;9.584;2023-03-03T03:35:19;1.00;99.90
21616;DHT22;10970;48.714;9.584;2023-03-03T03:37:44;1.00;99.90
21616;DHT22;10970;48.714;9.584;2023-03-03T03:40:11;1.10;99.90
21616;DHT22;10970;48.714;9.584;2023-03-03T03:42:36;1.20;99.90
21616;DHT22;10970;48.714;9.584;2023-03-03T03:45:05;1.10;99.90
21616;DHT22;10970;48.714;9.584;2023-03-03T03:47:31;1.10;99.90
21616;DHT22;10970;48.714;9.584;2023-03-03T03:49:56;1.20;99.90
21616;DHT22;10970;48.714;9.584;2023-03-03T03:52:22;1.10;99.90
21616;DHT22;10970;48.714;9.584;2023-03-03T03:54:48;1.10;99.90
21616;DHT22;10970;48.714;9.584;2023-03-03T03:57:13;1.10;99.90
21616;DHT22;10970;48.714;9.584;2023-03-03T03:59:39;1.10;99.90
21616;DHT22;10970;48.714;9.584;2023-03-03T04:02:04;1.20;99.90
21616;DHT22;10970;48.714;9.584;2023-03-03T04:04:30;1.20;99.90
21616;DHT22;10970;48.714;9.584;2023-03-03T04:06:56;1.30;99.90
21616;DHT22;10970;48.714;9.584;2023-03-03T04:09:21;1.30;99.90
21616;DHT22;10970;48.714;9.584;2023-03-03T04:11:47;1.30;99.90
21616;DHT22;10970;48.714;9.584;2023-03-03T04:14:13;1.30;99.90
21616;DHT22;10970;48.714;9.584;2023-03-03T04:16:38;1.30;99.90
21616;DHT22;10970;48.714;9.584;2023-03-03T04:19:04;1.30;99.90
21616;DHT22;10970;48.714;9.584;2023-03-03T04:21:30;1.40;99.90
21616;DHT22;10970;48.714;9.584;2023-03-03T04:23:55;2.30;99.90
21616;DHT22;10970;48.714;9.584;2023-03-03T04:26:21;1.40;99.90
21616;DHT22;10970;48.714;9.584;2023-03-03T04:28:46;1.40;99.90
21616;DHT22;10970;48.714;9.584;2023-03-03T04:31:12;1.40;99.90
21616;DHT22;10970;48.714;9.584;2023-03-03T04:33:38;1.40;99.90
21616;DHT22;10970;48.714;9.584;2023-03-03T04:36:03;1.40;99.90
21616;DHT22;10970;48.714;9.584;2023-03-03T04:38:29;1.50;99.90
21616;DHT22;10970;48.714;9.584;2023-03-03T04:40:55;1.50;99.90
21616;DHT22;10970;48.714;9.584;2023-03-03T04:43:21;1.60;99.90
21616;DHT22;10970;48.714;9.584;2023-03-03T04:45:47;1.60;99.90
21616;DHT22;10970;48.714;9.584;2023-03-03T04:48:13;1.50;99.90
21616;DHT22;10970;48.714;9.584;2023-03-03T04:50:38;1.60;99.90
21616;DHT22;10970;48.714;9.584;2023-03-03T04:53:04;1.50;99.90
21616;DHT22;10970;48.714;9.584;2023-03-03T04:55:30;1.50;99.90
21616;DHT22;10970;48.714;9.584;2023-03-03T04:57:55;1.50;99.90
21616;DHT22;10970;48.714;9.584;2023-03-03T05:00:21;1.50;99.90
21616;DHT22;10970;48.714;9.584;2023-03-03T05:02:48;1.50;99.90
21616;DHT22;10970;48.714;9.584;2023-03-03T05:05:13;1.60;99.90
21616;DHT22;10970;48.714;9.584;2023-03-03T05:07:39;1.60;99.90
21616;DHT22;10970;48.714;9.584;2023-03-03T05:10:06;1.60;99.90
21616;DHT22;10970;48.714;9.584;2023-03-03T05:12:32;1.60;99.90
21616;DHT22;10970;48.714;9.584;2023-03-03T05:14:58;1.60;99.90
21616;DHT22;10970;48.714;9.584;2023-03-03T05:17:23;1.60;99.90
21616;DHT22;10970;48.714;9.584;2023-03-03T05:19:49;1.60;99.90
21616;DHT22;10970;48.714;9.584;2023-03-03T05:22:14;1.50;99.90
21616;DHT22;10970;48.714;9.584;2023-03-03T05:24:40;1.60;99.90
21616;DHT22;10970;48.714;9.584;2023-03-03T05:27:07;1.60;99.90
21616;DHT22;10970;48.714;9.584;2023-03-03T05:29:33;1.60;99.90
21616;DHT22;10970;48.714;9.584;2023-03-03T05:31:59;1.60;99.90
21616;DHT22;10970;48.714;9.584;2023-03-03T05:34:25;1.50;99.90
21616;DHT22;10970;48.714;9.584;2023-03-03T05:36:51;1.40;99.90
21616;DHT22;10970;48.714;9.584;2023-03-03T05:39:16;1.60;99.90
21616;DHT22;10970;48.714;9.584;2023-03-03T05:41:42;1.60;99.90
21616;DHT22;10970;48.714;9.584;2023-03-03T05:44:08;1.70;99.90
21616;DHT22;10970;48.714;9.584;2023-03-03T05:46:34;1.60;99.90
21616;DHT22;10970;48.714;9.584;2023-03-03T05:49:00;1.60;99.90
21616;DHT22;10970;48.714;9.584;2023-03-03T05:51:26;1.60;99.90
21616;DHT22;10970;48.714;9.584;2023-03-03T05:53:51;1.60;99.90
21616;DHT22;10970;48.714;9.584;2023-03-03T05:56:17;1.60;99.90
21616;DHT22;10970;48.714;9.584;2023-03-03T05:58:43;1.60;99.90
21616;DHT22;10970;48.714;9.584;2023-03-03T06:01:08;1.70;99.90
21616;DHT22;10970;48.714;9.584;2023-03-03T06:03:34;1.70;99.90
21616;DHT22;10970;48.714;9.584;2023-03-03T06:06:00;1.60;99.90
21616;DHT22;10970;48.714;9.584;2023-03-03T06:08:25;1.70;99.90
21616;DHT22;10970;48.714;9.584;2023-03-03T06:10:51;1.70;99.90
21616;DHT22;10970;48.714;9.584;2023-03-03T06:13:17;1.80;99.90
21616;DHT22;10970;48.714;9.584;2023-03-03T06:15:43;1.70;99.90
21616;DHT22;10970;48.714;9.584;2023-03-03T06:18:08;1.80;99.90
21616;DHT22;10970;48.714;9.584;2023-03-03T06:20:34;1.80;99.90
21616;DHT22;10970;48.714;9.584;2023-03-03T06:23:01;1.80;99.90
21616;DHT22;10970;48.714;9.584;2023-03-03T06:25:27;1.80;99.90
21616;DHT22;10970;48.714;9.584;2023-03-03T06:27:53;1.80;99.90
21616;DHT22;10970;48.714;9.584;2023-03-03T06:30:19;1.80;99.90
21616;DHT22;10970;48.714;9.584;2023-03-03T06:32:45;1.80;99.90
21616;DHT22;10970;48.714;9.584;2023-03-03T06:35:11;1.80;99.90
21616;DHT22;10970;48.714;9.584;2023-03-03T06:37:37;1.90;99.90
21616;DHT22;10970;48.714;9.584;2023-03-03T06:40:05;2.00;99.90
21616;DHT22;10970;48.714;9.584;2023-03-03T06:42:30;2.00;99.90
21616;DHT22;10970;48.714;9.584;2023-03-03T06:44:56;2.00;99.90
21616;DHT22;10970;48.714;9.584;2023-03-03T06:47:22;2.00;99.90
21616;DHT22;10970;48.714;9.584;2023-03-03T06:49:47;2.00;99.90
21616;DHT22;10970;48.714;9.584;2023-03-03T06:52:25;2.00;99.90
21616;DHT22;10970;48.714;9.584;2023-03-03T06:55:00;2.10;99.90
21616;DHT22;10970;48.714;9.584;2023-03-03T06:57:32;2.20;99.90
21616;DHT22;10970;48.714;9.584;2023-03-03T07:02:35;2.30;99.90
21616;DHT22;10970;48.714;9.584;2023-03-03T07:05:01;2.30;99.90
21616;DHT22;10970;48.714;9.584;2023-03-03T07:10:12;2.50;99.90
21616;DHT22;10970;48.714;9.584;2023-03-03T07:12:40;2.60;99.90
21616;DHT22;10970;48.714;9.584;2023-03-03T07:15:14;2.70;99.90
21616;DHT22;10970;48.714;9.584;2023-03-03T07:17:44;2.80;99.90
21616;DHT22;10970;48.714;9.584;2023-03-03T07:20:37;2.70;99.90
21616;DHT22;10970;48.714;9.584;2023-03-03T07:23:36;2.80;99.90
21616;DHT22;10970;48.714;9.584;2023-03-03T07:26:11;2.90;99.90
21616;DHT22;10970;48.714;9.584;2023-03-03T07:28:40;2.90;99.90
21616;DHT22;10970;48.714;9.584;2023-03-03T07:31:24;3.00;99.90
21616;DHT22;10970;48.714;9.584;2023-03-03T07:33:51;3.00;99.90
21616;DHT22;10970;48.714;9.584;2023-03-03T07:36:34;3.10;99.90
21616;DHT22;10970;48.714;9.584;2023-03-03T07:39:13;3.10;99.90
21616;DHT22;10970;48.714;9.584;2023-03-03T07:41:43;3.30;99.90
21616;DHT22;10970;48.714;9.584;2023-03-03T07:44:33;3.20;99.90
21616;DHT22;10970;48.714;9.584;2023-03-03T07:49:37;3.40;99.90
21616;DHT22;10970;48.714;9.584;2023-03-03T07:54:51;3.60;99.90
21616;DHT22;10970;48.714;9.584;2023-03-03T08:03:37;3.70;99.90
21616;DHT22;10970;48.714;9.584;2023-03-03T08:05:46;3.80;99.90
21616;DHT22;10970;48.714;9.584;2023-03-03T08:08:34;3.90;99.90
21616;DHT22;10970;48.714;9.584;2023-03-03T08:11:06;4.00;99.90
21616;DHT22;10970;48.714;9.584;2023-03-03T08:18:38;4.10;99.90
21616;DHT22;10970;48.714;9.584;2023-03-03T08:21:10;4.00;99.90
21616;DHT22;10970;48.714;9.584;2023-03-03T08:23:37;4.10;99.90
21616;DHT22;10970;48.714;9.584;2023-03-03T08:26:03;4.00;99.90
21616;DHT22;10970;48.714;9.584;2023-03-03T08:28:28;4.10;99.90
21616;DHT22;10970;48.714;9.584;2023-03-03T08:30:54;4.20;99.90
21616;DHT22;10970;48.714;9.584;2023-03-03T08:33:20;4.20;99.90
21616;DHT22;10970;48.714;9.584;2023-03-03T08:35:46;4.20;99.90
21616;DHT22;10970;48.714;9.584;2023-03-03T08:38:14;4.30;99.90
21616;DHT22;10970;48.714;9.584;2023-03-03T08:40:40;4.30;99.90
21616;DHT22;10970;48.714;9.584;2023-03-03T08:43:07;4.40;99.90
21616;DHT22;10970;48.714;9.584;2023-03-03T08:45:33;4.40;99.90
21616;DHT22;10970;48.714;9.584;2023-03-03T08:47:58;4.30;99.90
21616;DHT22;10970;48.714;9.584;2023-03-03T08:50:25;4.20;99.90
21616;DHT22;10970;48.714;9.584;2023-03-03T08:52:51;4.30;99.90
21616;DHT22;10970;48.714;9.584;2023-03-03T08:55:17;4.30;99.90
21616;DHT22;10970;48.714;9.584;2023-03-03T08:57:43;4.40;99.90
21616;DHT22;10970;48.714;9.584;2023-03-03T09:00:12;4.50;99.90
21616;DHT22;10970;48.714;9.584;2023-03-03T09:02:38;4.70;99.90
21616;DHT22;10970;48.714;9.584;2023-03-03T09:05:04;4.80;99.90
21616;DHT22;10970;48.714;9.584;2023-03-03T09:07:30;4.80;99.90
21616;DHT22;10970;48.714;9.584;2023-03-03T09:09:56;4.90;99.90
21616;DHT22;10970;48.714;9.584;2023-03-03T09:12:34;5.00;99.90
21616;DHT22;10970;48.714;9.584;2023-03-03T09:17:38;5.40;99.90
21616;DHT22;10970;48.714;9.584;2023-03-03T09:22:52;5.70;99.90
21616;DHT22;10970;48.714;9.584;2023-03-03T09:25:31;5.80;99.90
21616;DHT22;10970;48.714;9.584;2023-03-03T09:27:58;5.90;99.90
21616;DHT22;10970;48.714;9.584;2023-03-03T09:30:39;6.00;99.90
21616;DHT22;10970;48.714;9.584;2023-03-03T09:33:23;6.10;99.90
21616;DHT22;10970;48.714;9.584;2023-03-03T09:35:51;6.20;99.90
21616;DHT22;10970;48.714;9.584;2023-03-03T09:38:28;6.20;99.90
21616;DHT22;10970;48.714;9.584;2023-03-03T09:43:36;6.30;99.90
21616;DHT22;10970;48.714;9.584;2023-03-03T09:46:16;6.20;99.90
21616;DHT22;10970;48.714;9.584;2023-03-03T09:54:21;6.80;99.90
21616;DHT22;10970;48.714;9.584;2023-03-03T10:02:50;6.80;99.90
21616;DHT22;10970;48.714;9.584;2023-03-03T10:19:38;7.40;99.90
21616;DHT22;10970;48.714;9.584;2023-03-03T10:22:22;7.30;99.90
21616;DHT22;10970;48.714;9.584;2023-03-03T10:44:39;7.90;99.90
21616;DHT22;10970;48.714;9.584;2023-03-03T10:49:56;8.00;99.90
21616;DHT22;10970;48.714;9.584;2023-03-03T10:52:31;7.90;99.90
21616;DHT22;10970;48.714;9.584;2023-03-03T10:55:11;7.80;99.90
21616;DHT22;10970;48.714;9.584;2023-03-03T11:00:38;7.80;99.90
21616;DHT22;10970;48.714;9.584;2023-03-03T11:05:58;7.50;99.90
21616;DHT22;10970;48.714;9.584;2023-03-03T11:08:50;7.50;99.90
21616;DHT22;10970;48.714;9.584;2023-03-03T11:11:24;7.50;99.90
21616;DHT22;10970;48.714;9.584;2023-03-03T11:14:27;7.50;99.90
21616;DHT22;10970;48.714;9.584;2023-03-03T11:22:47;7.60;99.90
21616;DHT22;10970;48.714;9.584;2023-03-03T11:27:59;8.20;99.90
21616;DHT22;10970;48.714;9.584;2023-03-03T11:33:49;8.70;99.90
21616;DHT22;10970;48.714;9.584;2023-03-03T11:36:30;8.60;99.90
21616;DHT22;10970;48.714;9.584;2023-03-03T11:39:00;9.00;99.90
21616;DHT22;10970;48.714;9.584;2023-03-03T11:41:38;8.90;99.90
21616;DHT22;10970;48.714;9.584;2023-03-03T11:54:54;9.10;99.90
21616;DHT22;10970;48.714;9.584;2023-03-03T11:57:53;9.10;99.90
21616;DHT22;10970;48.714;9.584;2023-03-03T12:00:44;9.00;99.90
21616;DHT22;10970;48.714;9.584;2023-03-03T12:03:33;9.10;99.90
21616;DHT22;10970;48.714;9.584;2023-03-03T12:06:11;9.30;99.90
21616;DHT22;10970;48.714;9.584;2023-03-03T12:14:20;9.10;99.90
21616;DHT22;10970;48.714;9.584;2023-03-03T12:16:56;9.40;99.90
21616;DHT22;10970;48.714;9.584;2023-03-03T12:35:58;9.40;99.90
21616;DHT22;10970;48.714;9.584;2023-03-03T12:41:01;9.40;99.90
21616;DHT22;10970;48.714;9.584;2023-03-03T12:46:15;9.40;99.90
21616;DHT22;10970;48.714;9.584;2023-03-03T12:48:45;9.20;99.90
21616;DHT22;10970;48.714;9.584;2023-03-03T12:59:42;9.20;99.90
21616;DHT22;10970;48.714;9.584;2023-03-03T13:10:35;9.80;99.90
21616;DHT22;10970;48.714;9.584;2023-03-03T13:18:54;10.00;99.90
21616;DHT22;10970;48.714;9.584;2023-03-03T13:21:28;10.00;99.90
21616;DHT22;10970;48.714;9.584;2023-03-03T13:26:51;9.70;99.90
21616;DHT22;10970;48.714;9.584;2023-03-03T13:29:26;9.60;99.90
21616;DHT22;10970;48.714;9.584;2023-03-03T13:31:58;9.50;99.90
21616;DHT22;10970;48.714;9.584;2023-03-03T13:38:03;9.60;99.90
21616;DHT22;10970;48.714;9.584;2023-03-03T13:40:26;9.50;99.90
21616;DHT22;10970;48.714;9.584;2023-03-03T13:46:09;9.40;99.90
21616;DHT22;10970;48.714;9.584;2023-03-03T13:49:15;9.30;99.90
21616;DHT22;10970;48.714;9.584;2023-03-03T14:07:58;9.40;99.90
21616;DHT22;10970;48.714;9.584;2023-03-03T14:10:29;9.50;99.90
21616;DHT22;10970;48.714;9.584;2023-03-03T14:21:10;9.30;99.90
21616;DHT22;10970;48.714;9.584;2023-03-03T14:26:24;9.40;99.90
21616;DHT22;10970;48.714;9.584;2023-03-03T14:28:50;9.50;
21616;DHT22;10970;48.714;9.584;2023-03-03T14:31:29;9.50;99.90
21616;DHT22;10970;48.714;9.584;2023-03-03T14:37:24;9.70;99.90
21616;DHT22;10970;48.714;9.584;2023-03-03T14:43:18;9.50;99.90
21616;DHT22;10970;48.714;9.584;2023-03-03T14:47:53;9.40;99.90
21616;DHT22;10970;48.714;9.584;2023-03-03T14:50:38;9.50;99.90
21616;DHT22;10970;48.714;9.584;2023-03-03T14:55:46;9.40;99.90
21616;DHT22;10970;48.714;9.584;2023-03-03T15:06:45;9.50;99.90
21616;DHT22;10970;48.714;9.584;2023-03-03T15:09:39;9.60;99.90
21616;DHT22;10970;48.714;9.584;2023-03-03T15:12:25;9.70;99.90
21616;DHT22;10970;48.714;9.584;2023-03-03T15:20:43;9.70;99.90
21616;DHT22;10970;48.714;9.584;2023-03-03T15:34:47;9.60;99.90
21616;DHT22;10970;48.714;9.584;2023-03-03T15:42:23;9.60;99.90
21616;DHT22;10970;48.714;9.584;2023-03-03T15:45:00;9.70;99.90
21616;DHT22;10970;48.714;9.584;2023-03-03T15:47:43;9.60;99.90
21616;DHT22;10970;48.714;9.584;2023-03-03T15:53:56;9.50;99.90
21616;DHT22;10970;48.714;9.584;2023-03-03T16:02:22;9.40;99.90
21616;DHT22;10970;48.714;9.584;2023-03-03T16:05:01;9.40;99.90
21616;DHT22;10970;48.714;9.584;2023-03-03T16:15:23;9.20;99.90
21616;DHT22;10970;48.714;9.584;2023-03-03T16:18:04;9.20;99.90
21616;DHT22;10970;48.714;9.584;2023-03-03T16:21:13;9.20;99.90
21616;DHT22;10970;48.714;9.584;2023-03-03T16:23:47;9.20;99.90
21616;DHT22;10970;48.714;9.584;2023-03-03T16:26:37;9.10;99.90
21616;DHT22;10970;48.714;9.584;2023-03-03T16:32:10;9.00;99.90
21616;DHT22;10970;48.714;9.584;2023-03-03T16:35:17;8.90;99.90
21616;DHT22;10970;48.714;9.584;2023-03-03T16:38:08;8.90;99.90
21616;DHT22;10970;48.714;9.584;2023-03-03T16:40:46;8.80;99.90
21616;DHT22;10970;48.714;9.584;2023-03-03T16:46:37;8.60;99.90
21616;DHT22;10970;48.714;9.584;2023-03-03T16:52:01;8.40;99.90
21616;DHT22;10970;48.714;9.584;2023-03-03T16:54:52;8.30;99.90
21616;DHT22;10970;48.714;9.584;2023-03-03T16:57:44;8.20;99.90
21616;DHT22;10970;48.714;9.584;2023-03-03T17:00:22;8.10;99.90
21616;DHT22;10970;48.714;9.584;2023-03-03T17:03:22;7.80;99.90
21616;DHT22;10970;48.714;9.584;2023-03-03T17:05:53;7.70;99.90
21616;DHT22;10970;48.714;9.584;2023-03-03T17:08:55;7.50;99.90
21616;DHT22;10970;48.714;9.584;2023-03-03T17:32:35;6.80;99.90
21616;DHT22;10970;48.714;9.584;2023-03-03T17:37:38;6.70;99.90
21616;DHT22;10970;48.714;9.584;2023-03-03T17:45:30;6.40;99.90
21616;DHT22;10970;48.714;9.584;2023-03-03T17:53:43;6.30;99.90
21616;DHT22;10970;48.714;9.584;2023-03-03T17:56:24;6.20;99.90
21616;DHT22;10970;48.714;9.584;2023-03-03T18:15:41;5.40;99.90
21616;DHT22;10970;48.714;9.584;2023-03-03T18:18:48;5.20;99.90
21616;DHT22;10970;48.714;9.584;2023-03-03T18:23:42;5.00;99.90
21616;DHT22;10970;48.714;9.584;2023-03-03T18:29:19;4.80;99.90
21616;DHT22;10970;48.714;9.584;2023-03-03T18:31:49;4.70;99.90
21616;DHT22;10970;48.714;9.584;2023-03-03T18:37:02;4.60;99.90
21616;DHT22;10970;48.714;9.584;2023-03-03T18:40:14;4.50;99.90
21616;DHT22;10970;48.714;9.584;2023-03-03T18:42:40;4.40;99.90
21616;DHT22;10970;48.714;9.584;2023-03-03T18:48:04;4.20;99.90
21616;DHT22;10970;48.714;9.584;2023-03-03T18:50:43;4.20;99.90
21616;DHT22;10970;48.714;9.584;2023-03-03T18:53:24;4.10;99.90
21616;DHT22;10970;48.714;9.584;2023-03-03T18:55:57;4.00;99.90
21616;DHT22;10970;48.714;9.584;2023-03-03T19:01:11;3.90;99.90
21616;DHT22;10970;48.714;9.584;2023-03-03T19:12:09;3.70;99.90
21616;DHT22;10970;48.714;9.584;2023-03-03T19:14:39;3.60;99.90
21616;DHT22;10970;48.714;9.584;2023-03-03T19:20:10;3.50;99.90
21616;DHT22;10970;48.714;9.584;2023-03-03T19:23:03;3.40;99.90
21616;DHT22;10970;48.714;9.584;2023-03-03T19:25:30;3.40;99.90
21616;DHT22;10970;48.714;9.584;2023-03-03T19:31:35;3.20;99.90
21616;DHT22;10970;48.714;9.584;2023-03-03T19:39:48;3.10;99.90
21616;DHT22;10970;48.714;9.584;2023-03-03T19:45:16;3.00;99.90
21616;DHT22;10970;48.714;9.584;2023-03-03T19:48:05;3.00;99.90
21616;DHT22;10970;48.714;9.584;2023-03-03T19:50:59;3.00;99.90
21616;DHT22;10970;48.714;9.584;2023-03-03T19:56:39;2.80;99.90
21616;DHT22;10970;48.714;9.584;2023-03-03T19:59:19;2.70;99.90
21616;DHT22;10970;48.714;9.584;2023-03-03T20:02:01;2.70;99.90
21616;DHT22;10970;48.714;9.584;2023-03-03T20:15:02;2.50;99.90
21616;DHT22;10970;48.714;9.584;2023-03-03T20:17:48;2.40;99.90
21616;DHT22;10970;48.714;9.584;2023-03-03T20:29:09;2.10;99.90
21616;DHT22;10970;48.714;9.584;2023-03-03T20:37:58;2.00;99.90
21616;DHT22;10970;48.714;9.584;2023-03-03T20:40:44;2.00;99.90
21616;DHT22;10970;48.714;9.584;2023-03-03T20:43:42;2.00;99.90
21616;DHT22;10970;48.714;9.584;2023-03-03T20:55:18;1.80;99.90
21616;DHT22;10970;48.714;9.584;2023-03-03T21:00:24;1.70;99.90
21616;DHT22;10970;48.714;9.584;2023-03-03T21:03:23;1.70;99.90
21616;DHT22;10970;48.714;9.584;2023-03-03T21:05:55;1.70;99.90
21616;DHT22;10970;48.714;9.584;2023-03-03T21:08:53;1.70;99.90
21616;DHT22;10970;48.714;9.584;2023-03-03T21:11:21;1.70;99.90
21616;DHT22;10970;48.714;9.584;2023-03-03T21:13:49;1.60;99.90
21616;DHT22;10970;48.714;9.584;2023-03-03T21:19:06;1.60;99.90
21616;DHT22;10970;48.714;9.584;2023-03-03T21:21:39;1.50;99.90
21616;DHT22;10970;48.714;9.584;2023-03-03T21:24:06;1.50;99.90
21616;DHT22;10970;48.714;9.584;2023-03-03T21:27:00;1.40;99.90
21616;DHT22;10970;48.714;9.584;2023-03-03T21:29:29;1.40;99.90
21616;DHT22;10970;48.714;9.584;2023-03-03T21:31:56;1.40;99.90
21616;DHT22;10970;48.714;9.584;2023-03-03T21:36:59;1.40;99.90
21616;DHT22;10970;48.714;9.584;2023-03-03T21:39:31;1.30;99.90
21616;DHT22;10970;48.714;9.584;2023-03-03T21:44:38;1.30;99.90
21616;DHT22;10970;48.714;9.584;2023-03-03T21:47:06;1.30;99.90
21616;DHT22;10970;48.714;9.584;2023-03-03T21:49:33;1.20;99.90
21616;DHT22;10970;48.714;9.584;2023-03-03T21:51:59;1.20;99.90
21616;DHT22;10970;48.714;9.584;2023-03-03T21:54:25;1.20;99.90
21616;DHT22;10970;48.714;9.584;2023-03-03T21:56:51;1.20;99.90
21616;DHT22;10970;48.714;9.584;2023-03-03T21:59:17;1.10;99.90
21616;DHT22;10970;48.714;9.584;2023-03-03T22:01:43;1.00;99.90
21616;DHT22;10970;48.714;9.584;2023-03-03T22:04:09;1.00;99.90
21616;DHT22;10970;48.714;9.584;2023-03-03T22:06:35;0.90;99.90
21616;DHT22;10970;48.714;9.584;2023-03-03T22:09:03;0.90;99.90
21616;DHT22;10970;48.714;9.584;2023-03-03T22:11:28;0.80;99.90
21616;DHT22;10970;48.714;9.584;2023-03-03T22:13:54;0.80;99.90
21616;DHT22;10970;48.714;9.584;2023-03-03T22:16:20;0.80;99.90
21616;DHT22;10970;48.714;9.584;2023-03-03T22:18:46;0.70;99.90
21616;DHT22;10970;48.714;9.584;2023-03-03T22:21:12;0.70;99.90
21616;DHT22;10970;48.714;9.584;2023-03-03T22:23:38;0.70;99.90
21616;DHT22;10970;48.714;9.584;2023-03-03T22:26:04;0.60;99.90
21616;DHT22;10970;48.714;9.584;2023-03-03T22:28:29;0.60;99.90
21616;DHT22;10970;48.714;9.584;2023-03-03T22:30:55;0.50;99.90
21616;DHT22;10970;48.714;9.584;2023-03-03T22:33:21;0.50;99.90
21616;DHT22;10970;48.714;9.584;2023-03-03T22:35:47;0.50;99.90
21616;DHT22;10970;48.714;9.584;2023-03-03T22:38:14;0.50;99.90
21616;DHT22;10970;48.714;9.584;2023-03-03T22:40:40;0.40;99.90
21616;DHT22;10970;48.714;9.584;2023-03-03T22:43:06;0.40;99.90
21616;DHT22;10970;48.714;9.584;2023-03-03T22:45:32;0.40;99.90
21616;DHT22;10970;48.714;9.584;2023-03-03T22:47:58;0.40;99.90
21616;DHT22;10970;48.714;9.584;2023-03-03T22:50:24;0.40;99.90
21616;DHT22;10970;48.714;9.584;2023-03-03T22:52:50;0.40;99.90
21616;DHT22;10970;48.714;9.584;2023-03-03T22:55:15;0.40;99.90
21616;DHT22;10970;48.714;9.584;2023-03-03T22:57:41;0.40;99.90
21616;DHT22;10970;48.714;9.584;2023-03-03T23:00:09;0.40;99.90
21616;DHT22;10970;48.714;9.584;2023-03-03T23:02:36;0.40;99.90
21616;DHT22;10970;48.714;9.584;2023-03-03T23:05:02;0.30;99.90
21616;DHT22;10970;48.714;9.584;2023-03-03T23:07:33;0.30;99.90
21616;DHT22;10970;48.714;9.584;2023-03-03T23:09:59;0.40;99.90